Time;durP1;ratioP1;P1;durP2;ratioP2;P2;SDS_P1;SDS_P2;PMS_P1;PMS_P2;Temp;Humidity;BMP_temperature;BMP_pressure;BME280_temperature;BME280_humidity;BME280_pressure;Samples;Min_cycle;Max_cycle;Signal;HPM_P1;HPM_P2
2023/04/26 00:01:03;;;;;;;11.05;5.15;;;;;;;;;;4980439;28;20046;-84
2023/04/26 00:03:29;;;;;;;7.95;5.03;;;;;;;;;;4955993;28;20065;-82
2023/04/26 00:05:54;;;;;;;9.27;5.30;;;;;;;;;;4996527;28;20033;-84
2023/04/26 00:08:19;;;;;;;9.43;4.72;;;;;;;;;;4996457;28;20026;-85
2023/04/26 00:10:45;;;;;;;6.70;4.57;;;;;;;;;;4996129;28;20030;-84
2023/04/26 00:13:10;;;;;;;10.07;5.05;;;;;;;;;;4978904;28;20029;-83
2023/04/26 00:15:36;;;;;;;10.18;4.53;;;;;;;;;;4978096;28;20027;-84
2023/04/26 00:18:01;;;;;;;7.32;4.93;;;;;;;;;;4978801;28;20352;-85
2023/04/26 00:20:26;;;;;;;9.32;4.65;;;;;;;;;;4979354;28;20086;-84
2023/04/26 00:22:52;;;;;;;9.60;5.05;;;;;;;;;;4976840;28;20836;-84
2023/04/26 00:25:17;;;;;;;9.98;5.25;;;;;;;;;;4995008;28;20482;-84
2023/04/26 00:27:42;;;;;;;8.40;4.82;;;;;;;;;;5001424;28;20383;-85
2023/04/26 00:30:09;;;;;;;14.10;5.03;;;;;;;;;;4997292;28;20027;-83
2023/04/26 00:32:35;;;;;;;10.40;4.40;;;;;;;;;;4995949;28;20398;-84
2023/04/26 00:35:02;;;;;;;8.57;4.93;;;;;;;;;;4996274;28;20105;-84
2023/04/26 00:37:27;;;;;;;10.65;4.45;;;;;;;;;;4992540;28;20057;-84
2023/04/26 00:39:53;;;;;;;7.43;4.15;;;;;;;;;;5017247;28;20022;-83
2023/04/26 00:42:18;;;;;;;5.70;3.90;;;;;;;;;;5023422;28;20041;-82
2023/04/26 00:44:44;;;;;;;8.65;4.68;;;;;;;;;;5018673;28;20086;-82
2023/04/26 00:47:09;;;;;;;8.55;4.15;;;;;;;;;;4980264;28;20049;-84
2023/04/26 00:49:35;;;;;;;6.32;4.22;;;;;;;;;;5001058;28;20023;-84
2023/04/26 00:52:01;;;;;;;6.43;4.03;;;;;;;;;;4980425;28;20026;-84
2023/04/26 00:54:27;;;;;;;5.72;4.15;;;;;;;;;;5004255;28;20519;-85
2023/04/26 00:56:53;;;;;;;10.70;4.13;;;;;;;;;;5007164;28;20105;-83
2023/04/26 00:59:19;;;;;;;6.78;3.72;;;;;;;;;;4976922;28;20058;-82
2023/04/26 01:01:46;;;;;;;8.88;4.80;;;;;;;;;;4980744;28;20088;-83
2023/04/26 01:04:13;;;;;;;9.48;4.60;;;;;;;;;;4986850;28;20026;-81
2023/04/26 01:06:39;;;;;;;12.48;5.40;;;;;;;;;;5004384;28;20014;-82
2023/04/26 01:09:10;;;;;;;10.27;4.28;;;;;;;;;;5001236;28;20017;-82
2023/04/26 01:11:36;;;;;;;7.07;4.00;;;;;;;;;;4990484;28;20054;-84
2023/04/26 01:14:03;;;;;;;9.38;4.40;;;;;;;;;;4996303;28;20077;-84
2023/04/26 01:16:29;;;;;;;8.10;4.35;;;;;;;;;;4987645;28;20037;-84
2023/04/26 01:18:55;;;;;;;7.72;4.60;;;;;;;;;;5000067;28;20030;-84
2023/04/26 01:21:23;;;;;;;8.25;4.40;;;;;;;;;;4996514;28;20030;-84
2023/04/26 01:23:49;;;;;;;5.47;3.58;;;;;;;;;;4979581;28;20031;-84
2023/04/26 01:26:15;;;;;;;12.13;4.63;;;;;;;;;;5004767;28;20034;-84
2023/04/26 01:28:41;;;;;;;13.48;4.70;;;;;;;;;;4996426;28;20033;-83
2023/04/26 01:31:06;;;;;;;6.40;4.30;;;;;;;;;;4973345;28;20015;-84
2023/04/26 01:33:31;;;;;;;7.60;4.15;;;;;;;;;;4989857;28;20139;-83
2023/04/26 01:35:57;;;;;;;7.55;3.78;;;;;;;;;;4995844;28;20061;-84
2023/04/26 01:38:22;;;;;;;7.90;4.35;;;;;;;;;;4979114;28;20053;-84
2023/04/26 01:40:47;;;;;;;8.00;4.13;;;;;;;;;;4990416;28;20028;-83
2023/04/26 01:43:14;;;;;;;9.75;4.53;;;;;;;;;;4991482;28;20065;-83
2023/04/26 01:45:40;;;;;;;12.25;4.80;;;;;;;;;;4978159;28;20594;-85
2023/04/26 01:48:06;;;;;;;6.40;4.03;;;;;;;;;;4996874;28;20046;-84
2023/04/26 01:50:31;;;;;;;5.90;3.83;;;;;;;;;;4977032;28;20033;-84
2023/04/26 01:52:57;;;;;;;12.30;4.18;;;;;;;;;;4978490;28;20113;-85
2023/04/26 01:55:22;;;;;;;5.55;3.90;;;;;;;;;;4977621;28;20029;-84
2023/04/26 01:57:47;;;;;;;5.82;4.05;;;;;;;;;;4995406;28;20026;-84
2023/04/26 02:00:13;;;;;;;12.25;4.28;;;;;;;;;;4988652;28;20014;-84
2023/04/26 02:02:38;;;;;;;7.57;4.80;;;;;;;;;;4998506;28;20038;-84
2023/04/26 02:05:04;;;;;;;10.10;3.97;;;;;;;;;;5005331;28;20021;-84
2023/04/26 02:07:30;;;;;;;10.43;4.80;;;;;;;;;;5010609;28;20093;-84
2023/04/26 02:09:55;;;;;;;7.57;4.22;;;;;;;;;;5001140;28;20022;-84
2023/04/26 02:12:20;;;;;;;9.70;4.72;;;;;;;;;;4984828;28;20117;-84
2023/04/26 02:14:46;;;;;;;11.18;4.40;;;;;;;;;;4981702;28;20034;-85
2023/04/26 02:17:11;;;;;;;9.27;5.47;;;;;;;;;;4983508;28;20554;-85
2023/04/26 02:19:36;;;;;;;11.05;4.25;;;;;;;;;;4982897;28;20021;-85
2023/04/26 02:22:05;;;;;;;5.82;3.70;;;;;;;;;;4982410;28;20026;-84
2023/04/26 02:24:30;;;;;;;9.13;3.95;;;;;;;;;;4999349;28;20041;-85
2023/04/26 02:26:59;;;;;;;8.85;4.65;;;;;;;;;;4982334;28;20403;-84
2023/04/26 02:29:24;;;;;;;7.60;3.75;;;;;;;;;;4980845;28;20088;-83
2023/04/26 02:31:50;;;;;;;13.30;4.35;;;;;;;;;;4997458;28;20113;-84
2023/04/26 02:34:15;;;;;;;9.40;4.30;;;;;;;;;;5004720;28;20018;-84
2023/04/26 02:36:41;;;;;;;7.22;4.78;;;;;;;;;;4986807;28;20505;-86
2023/04/26 02:39:06;;;;;;;16.25;5.32;;;;;;;;;;4996697;28;20030;-86
2023/04/26 02:41:32;;;;;;;9.25;4.68;;;;;;;;;;4997540;28;20038;-84
2023/04/26 02:43:57;;;;;;;8.05;5.05;;;;;;;;;;4997382;28;20030;-83
2023/04/26 02:46:22;;;;;;;12.98;5.38;;;;;;;;;;4981211;28;20113;-85
2023/04/26 02:48:48;;;;;;;11.63;5.40;;;;;;;;;;4996483;28;20018;-84
2023/04/26 02:51:14;;;;;;;16.52;6.25;;;;;;;;;;4979688;28;20027;-82
2023/04/26 02:53:40;;;;;;;17.20;6.47;;;;;;;;;;5002667;28;20029;-82
2023/04/26 02:56:05;;;;;;;10.55;6.30;;;;;;;;;;5000205;28;20022;-83
2023/04/26 02:58:31;;;;;;;12.07;7.15;;;;;;;;;;4977990;28;20113;-83
2023/04/26 03:00:58;;;;;;;11.48;6.20;;;;;;;;;;4978946;28;20030;-83
2023/04/26 03:03:24;;;;;;;11.43;6.93;;;;;;;;;;4978235;28;20033;-82
2023/04/26 03:05:49;;;;;;;13.52;7.35;;;;;;;;;;4996177;28;20455;-82
2023/04/26 03:08:14;;;;;;;10.77;6.25;;;;;;;;;;4996640;28;20105;-86
2023/04/26 03:10:40;;;;;;;11.18;6.40;;;;;;;;;;4983068;28;20113;-85
2023/04/26 03:13:06;;;;;;;11.65;7.05;;;;;;;;;;4995922;28;20030;-85
2023/04/26 03:15:31;;;;;;;11.85;7.00;;;;;;;;;;4978667;28;20553;-85
2023/04/26 03:17:57;;;;;;;12.00;6.85;;;;;;;;;;4997469;28;20029;-84
2023/04/26 03:20:23;;;;;;;11.10;7.22;;;;;;;;;;4997272;28;20007;-83
2023/04/26 03:22:48;;;;;;;11.98;7.10;;;;;;;;;;5011787;28;20010;-84
2023/04/26 03:25:15;;;;;;;16.27;7.30;;;;;;;;;;5009687;28;20050;-84
2023/04/26 03:27:40;;;;;;;18.20;7.40;;;;;;;;;;5007511;28;20045;-84
2023/04/26 03:30:06;;;;;;;10.77;6.45;;;;;;;;;;5008542;28;20037;-84
2023/04/26 03:32:32;;;;;;;11.35;6.82;;;;;;;;;;5010911;28;20018;-84
2023/04/26 03:34:57;;;;;;;11.38;6.60;;;;;;;;;;5002360;28;20098;-84
2023/04/26 03:37:22;;;;;;;13.20;7.32;;;;;;;;;;5001753;28;20027;-84
2023/04/26 03:39:49;;;;;;;10.57;6.50;;;;;;;;;;4983533;28;20109;-83
2023/04/26 03:42:14;;;;;;;14.85;7.03;;;;;;;;;;5001478;28;20038;-83
2023/04/26 03:44:41;;;;;;;14.23;7.22;;;;;;;;;;4999915;28;20586;-84
2023/04/26 03:47:06;;;;;;;10.65;6.35;;;;;;;;;;4983059;28;20064;-85
2023/04/26 03:49:31;;;;;;;13.68;6.60;;;;;;;;;;4987283;28;20026;-84
2023/04/26 03:51:57;;;;;;;9.70;6.18;;;;;;;;;;4980811;28;20014;-84
2023/04/26 03:54:22;;;;;;;11.30;6.15;;;;;;;;;;4999813;28;20061;-83
2023/04/26 03:56:47;;;;;;;13.27;6.68;;;;;;;;;;5014610;28;20014;-83
2023/04/26 03:59:13;;;;;;;12.07;6.68;;;;;;;;;;5008663;28;20045;-84
2023/04/26 04:01:38;;;;;;;15.43;7.07;;;;;;;;;;5000706;28;20037;-83
2023/04/26 04:04:03;;;;;;;8.57;5.30;;;;;;;;;;4988523;28;20038;-84
2023/04/26 04:06:29;;;;;;;13.20;6.28;;;;;;;;;;4981185;28;20442;-84
2023/04/26 04:08:55;;;;;;;11.25;5.93;;;;;;;;;;4979960;28;20407;-84
2023/04/26 04:11:20;;;;;;;10.73;5.78;;;;;;;;;;4997662;28;20030;-84
2023/04/26 04:13:45;;;;;;;17.38;7.78;;;;;;;;;;4998758;28;20030;-85
2023/04/26 04:16:11;;;;;;;14.65;7.47;;;;;;;;;;4998680;28;20038;-83
2023/04/26 04:18:36;;;;;;;12.00;7.28;;;;;;;;;;4979917;28;20042;-84
2023/04/26 04:21:02;;;;;;;14.15;7.05;;;;;;;;;;4980072;28;20479;-84
2023/04/26 04:23:27;;;;;;;17.80;6.97;;;;;;;;;;4979521;28;20109;-83
2023/04/26 04:25:52;;;;;;;12.18;6.57;;;;;;;;;;4979983;28;20022;-84
2023/04/26 04:28:18;;;;;;;14.80;7.40;;;;;;;;;;4979662;28;20052;-84
2023/04/26 04:30:45;;;;;;;10.40;6.47;;;;;;;;;;4979613;28;20354;-84
2023/04/26 04:33:11;;;;;;;11.57;7.03;;;;;;;;;;4980536;28;20026;-84
2023/04/26 04:35:36;;;;;;;13.13;7.07;;;;;;;;;;5001479;28;20081;-83
2023/04/26 04:38:02;;;;;;;13.70;6.85;;;;;;;;;;4984651;28;20028;-84
2023/04/26 04:40:27;;;;;;;12.65;5.78;;;;;;;;;;4996631;28;20037;-84
2023/04/26 04:42:54;;;;;;;11.45;6.03;;;;;;;;;;4977613;28;20447;-83
2023/04/26 04:45:20;;;;;;;13.32;6.13;;;;;;;;;;4971174;28;20039;-83
2023/04/26 04:47:46;;;;;;;12.55;5.90;;;;;;;;;;4985405;28;20026;-83
2023/04/26 04:50:12;;;;;;;12.77;7.65;;;;;;;;;;4977939;28;20046;-83
2023/04/26 04:52:37;;;;;;;9.75;6.20;;;;;;;;;;4997328;28;20034;-83
2023/04/26 04:55:03;;;;;;;14.13;6.63;;;;;;;;;;4996020;28;20026;-82
2023/04/26 04:57:30;;;;;;;11.52;7.07;;;;;;;;;;4979004;28;20037;-84
2023/04/26 04:59:55;;;;;;;13.60;7.22;;;;;;;;;;4997045;28;20104;-83
2023/04/26 05:02:21;;;;;;;13.93;6.95;;;;;;;;;;4996987;28;20049;-83
2023/04/26 05:04:46;;;;;;;10.02;6.07;;;;;;;;;;4995809;28;20065;-83
2023/04/26 05:07:14;;;;;;;18.30;8.05;;;;;;;;;;4978596;28;20030;-83
2023/04/26 05:09:40;;;;;;;10.48;7.00;;;;;;;;;;4978878;28;20022;-80
2023/04/26 05:12:06;;;;;;;16.08;7.55;;;;;;;;;;4995443;28;20026;-82
2023/04/26 05:14:31;;;;;;;12.68;7.25;;;;;;;;;;4996347;28;20022;-83
2023/04/26 05:16:56;;;;;;;14.15;8.05;;;;;;;;;;4995598;28;20022;-82
2023/04/26 05:19:22;;;;;;;17.25;7.80;;;;;;;;;;4978888;28;20026;-83
2023/04/26 05:21:47;;;;;;;14.50;8.32;;;;;;;;;;4977412;28;20022;-83
2023/04/26 05:24:12;;;;;;;15.65;7.60;;;;;;;;;;4978308;28;20482;-82
2023/04/26 05:26:37;;;;;;;14.48;7.75;;;;;;;;;;4996225;28;20039;-82
2023/04/26 05:29:03;;;;;;;14.00;7.72;;;;;;;;;;5012818;28;20021;-84
2023/04/26 05:31:28;;;;;;;14.13;7.50;;;;;;;;;;4996191;28;20022;-83
2023/04/26 05:33:53;;;;;;;13.73;7.03;;;;;;;;;;5012258;28;20026;-87
2023/04/26 05:36:20;;;;;;;12.18;6.85;;;;;;;;;;4997621;28;20554;-82
2023/04/26 05:38:45;;;;;;;12.63;6.90;;;;;;;;;;5004253;28;20010;-81
2023/04/26 05:41:10;;;;;;;14.45;6.88;;;;;;;;;;5023656;28;20122;-81
2023/04/26 05:43:36;;;;;;;16.38;6.93;;;;;;;;;;5017160;28;20015;-81
2023/04/26 05:46:02;;;;;;;12.85;6.95;;;;;;;;;;5005300;28;20028;-83
2023/04/26 05:48:28;;;;;;;12.65;6.95;;;;;;;;;;4980002;28;20053;-82
2023/04/26 05:50:54;;;;;;;16.45;7.88;;;;;;;;;;4999999;28;20493;-82
2023/04/26 05:53:20;;;;;;;12.20;7.57;;;;;;;;;;4998176;28;20046;-81
2023/04/26 05:55:45;;;;;;;17.65;9.02;;;;;;;;;;4976953;28;20049;-81
2023/04/26 05:58:11;;;;;;;16.65;8.40;;;;;;;;;;4977964;28;20026;-81
2023/04/26 06:00:37;;;;;;;15.20;8.30;;;;;;;;;;4978391;28;20153;-81
2023/04/26 06:03:03;;;;;;;18.80;8.52;;;;;;;;;;4997244;28;20069;-82
2023/04/26 06:05:28;;;;;;;14.32;8.35;;;;;;;;;;4996521;28;20482;-82
2023/04/26 06:07:54;;;;;;;21.00;9.15;;;;;;;;;;5004665;28;20072;-82
2023/04/26 06:10:19;;;;;;;19.75;9.73;;;;;;;;;;4996556;28;20537;-82
2023/04/26 06:12:46;;;;;;;19.35;9.30;;;;;;;;;;5000735;28;20030;-83
2023/04/26 06:15:11;;;;;;;20.08;8.80;;;;;;;;;;5001735;28;20777;-82
2023/04/26 06:17:37;;;;;;;16.67;8.40;;;;;;;;;;5010930;28;20057;-82
2023/04/26 06:20:04;;;;;;;14.70;8.50;;;;;;;;;;5000643;28;20106;-82
2023/04/26 06:22:29;;;;;;;14.65;8.05;;;;;;;;;;4997399;28;20483;-82
2023/04/26 06:24:55;;;;;;;19.73;9.40;;;;;;;;;;5000979;28;20052;-81
2023/04/26 06:27:20;;;;;;;19.23;8.25;;;;;;;;;;4998402;28;20030;-82
2023/04/26 06:29:46;;;;;;;16.88;8.70;;;;;;;;;;4995497;28;20066;-82
2023/04/26 06:32:11;;;;;;;14.77;7.35;;;;;;;;;;4978505;28;20033;-82
2023/04/26 06:34:37;;;;;;;15.00;7.93;;;;;;;;;;4997375;28;20504;-83
2023/04/26 06:37:04;;;;;;;16.33;8.30;;;;;;;;;;4995298;28;20503;-83
2023/04/26 06:39:29;;;;;;;12.48;6.53;;;;;;;;;;4978180;28;20402;-82
2023/04/26 06:41:55;;;;;;;11.35;6.40;;;;;;;;;;4995792;28;20057;-83
2023/04/26 06:44:20;;;;;;;16.05;6.40;;;;;;;;;;4977329;28;20065;-82
2023/04/26 06:46:45;;;;;;;15.23;6.68;;;;;;;;;;4978267;28;20105;-83
2023/04/26 06:49:11;;;;;;;12.77;6.32;;;;;;;;;;4995048;28;20030;-83
2023/04/26 06:51:36;;;;;;;13.90;7.28;;;;;;;;;;4995514;28;20029;-83
2023/04/26 06:54:02;;;;;;;13.32;7.20;;;;;;;;;;4995023;28;20109;-83
2023/04/26 06:56:27;;;;;;;9.95;6.53;;;;;;;;;;4995737;28;20033;-83
2023/04/26 06:59:00;;;;;;;10.52;6.88;;;;;;;;;;4996282;28;20053;-82
2023/04/26 07:01:28;;;;;;;9.63;6.35;;;;;;;;;;4978219;28;20023;-83
2023/04/26 07:03:55;;;;;;;10.95;6.95;;;;;;;;;;4994999;28;20109;-82
2023/04/26 07:06:21;;;;;;;10.57;6.85;;;;;;;;;;4998313;28;20030;-83
2023/04/26 07:08:46;;;;;;;12.82;6.97;;;;;;;;;;5007090;28;20022;-83
2023/04/26 07:11:12;;;;;;;11.57;6.18;;;;;;;;;;5008391;23;20057;-83
2023/04/26 07:13:40;;;;;;;8.13;3.22;;;;;;;;;;4996773;28;20344;-82
2023/04/26 07:16:05;;;;;;;8.75;5.15;;;;;;;;;;4993243;28;20026;-83
2023/04/26 07:18:31;;;;;;;14.07;6.15;;;;;;;;;;4997582;28;20033;-83
2023/04/26 07:20:56;;;;;;;10.27;4.90;;;;;;;;;;4998832;28;20029;-83
2023/04/26 07:23:21;;;;;;;14.40;6.25;;;;;;;;;;4998590;28;20030;-83
2023/04/26 07:25:47;;;;;;;11.90;6.32;;;;;;;;;;5000251;28;20022;-82
2023/04/26 07:28:12;;;;;;;13.88;6.28;;;;;;;;;;4999577;28;20490;-82
2023/04/26 07:30:37;;;;;;;11.30;6.07;;;;;;;;;;4999388;28;20455;-83
2023/04/26 07:33:03;;;;;;;11.93;5.63;;;;;;;;;;4998935;28;20505;-83
2023/04/26 07:35:29;;;;;;;11.70;5.13;;;;;;;;;;5005757;28;20037;-82
2023/04/26 07:37:54;;;;;;;9.45;5.03;;;;;;;;;;4999287;28;20045;-83
2023/04/26 07:40:21;;;;;;;10.27;4.97;;;;;;;;;;4998734;28;20076;-82
2023/04/26 07:42:47;;;;;;;8.45;4.35;;;;;;;;;;4990222;28;20073;-82
2023/04/26 07:45:12;;;;;;;6.93;3.83;;;;;;;;;;4999120;28;20030;-83
2023/04/26 07:47:37;;;;;;;5.68;3.75;;;;;;;;;;4997768;28;20081;-82
2023/04/26 07:50:03;;;;;;;8.05;3.83;;;;;;;;;;4999054;28;20084;-83
2023/04/26 07:52:28;;;;;;;7.43;3.85;;;;;;;;;;4998921;28;20026;-83
2023/04/26 07:54:54;;;;;;;10.85;4.05;;;;;;;;;;4998361;28;20376;-83
2023/04/26 07:57:19;;;;;;;5.72;3.42;;;;;;;;;;4997966;28;20552;-83
2023/04/26 07:59:44;;;;;;;7.10;3.92;;;;;;;;;;4998984;28;20022;-83
2023/04/26 08:02:10;;;;;;;6.72;3.80;;;;;;;;;;4999343;28;20018;-83
2023/04/26 08:04:35;;;;;;;8.27;4.15;;;;;;;;;;4996750;28;20674;-82
2023/04/26 08:07:01;;;;;;;6.95;3.75;;;;;;;;;;5002458;28;20026;-82
2023/04/26 08:09:27;;;;;;;7.38;3.85;;;;;;;;;;4994785;28;20057;-82
2023/04/26 08:11:53;;;;;;;8.32;3.97;;;;;;;;;;4995784;28;20490;-83
2023/04/26 08:14:18;;;;;;;14.15;3.35;;;;;;;;;;4997075;28;20110;-83
2023/04/26 08:16:44;;;;;;;9.00;3.47;;;;;;;;;;4998920;28;20109;-83
2023/04/26 08:19:09;;;;;;;10.98;3.80;;;;;;;;;;4998541;28;20018;-82
2023/04/26 08:21:35;;;;;;;6.93;3.83;;;;;;;;;;4998290;28;20030;-82
2023/04/26 08:24:00;;;;;;;7.53;3.20;;;;;;;;;;4991280;28;20031;-82
2023/04/26 08:26:25;;;;;;;5.75;2.92;;;;;;;;;;4986699;28;20035;-82
2023/04/26 08:28:51;;;;;;;6.07;3.20;;;;;;;;;;4984770;28;20377;-83
2023/04/26 08:31:16;;;;;;;8.45;3.35;;;;;;;;;;4994352;28;20080;-82
2023/04/26 08:33:41;;;;;;;6.50;3.28;;;;;;;;;;4995537;28;20037;-83
2023/04/26 08:36:07;;;;;;;5.53;3.22;;;;;;;;;;5004271;28;20034;-83
2023/04/26 08:38:32;;;;;;;6.25;3.63;;;;;;;;;;4997831;28;20053;-82
2023/04/26 08:41:01;;;;;;;4.90;3.03;;;;;;;;;;4997550;28;20030;-82
2023/04/26 08:43:32;;;;;;;8.68;3.53;;;;;;;;;;4998836;28;20026;-83
2023/04/26 08:45:58;;;;;;;5.70;3.25;;;;;;;;;;5007003;28;20061;-82
2023/04/26 08:48:26;;;;;;;7.38;3.40;;;;;;;;;;5013685;28;20623;-83
2023/04/26 08:50:53;;;;;;;7.25;3.78;;;;;;;;;;4991991;28;20026;-83
2023/04/26 08:53:19;;;;;;;9.57;3.70;;;;;;;;;;4998358;28;20046;-82
2023/04/26 08:55:48;;;;;;;9.48;3.50;;;;;;;;;;4998044;28;20462;-83
2023/04/26 08:58:15;;;;;;;9.38;3.22;;;;;;;;;;4997274;28;20041;-82
2023/04/26 09:00:45;;;;;;;8.45;3.40;;;;;;;;;;4997400;28;20335;-82
2023/04/26 09:03:10;;;;;;;7.55;3.50;;;;;;;;;;4996244;28;20367;-82
2023/04/26 09:05:38;;;;;;;6.20;2.58;;;;;;;;;;4997102;28;20033;-83
2023/04/26 09:08:06;;;;;;;7.93;3.47;;;;;;;;;;4996770;28;20029;-83
2023/04/26 09:10:31;;;;;;;8.88;3.88;;;;;;;;;;4997978;28;20029;-85
2023/04/26 09:12:57;;;;;;;8.32;4.15;;;;;;;;;;4998811;28;20026;-84
2023/04/26 09:15:25;;;;;;;6.20;3.47;;;;;;;;;;4998147;28;20054;-83
2023/04/26 09:17:51;;;;;;;10.80;4.05;;;;;;;;;;4990502;28;20022;-83
2023/04/26 09:20:20;;;;;;;6.97;3.55;;;;;;;;;;4998621;28;20026;-83
2023/04/26 09:22:47;;;;;;;11.70;3.60;;;;;;;;;;4997320;28;20034;-82
2023/04/26 09:25:12;;;;;;;10.50;3.83;;;;;;;;;;4997300;28;20034;-83
2023/04/26 09:27:42;;;;;;;9.82;3.58;;;;;;;;;;4996990;28;20037;-83
2023/04/26 09:30:17;;;;;;;6.10;3.20;;;;;;;;;;4996968;28;20085;-82
2023/04/26 09:32:50;;;;;;;6.93;3.20;;;;;;;;;;4998139;28;20384;-83
2023/04/26 09:35:24;;;;;;;7.47;3.50;;;;;;;;;;5001376;28;20022;-83
2023/04/26 09:38:11;;;;;;;6.20;3.33;;;;;;;;;;5005831;28;20056;-82
2023/04/26 09:40:42;;;;;;;9.63;3.08;;;;;;;;;;5006085;28;20026;-82
2023/04/26 09:43:18;;;;;;;7.83;3.70;;;;;;;;;;5001228;28;20550;-83
2023/04/26 09:45:49;;;;;;;6.47;3.35;;;;;;;;;;5001063;28;20054;-82
2023/04/26 09:48:25;;;;;;;7.18;3.33;;;;;;;;;;4998813;28;20029;-83
2023/04/26 09:50:55;;;;;;;8.70;3.70;;;;;;;;;;5048220;23;20042;-82
2023/04/26 09:53:38;;;;;;;6.78;3.45;;;;;;;;;;4989382;28;20022;-84
2023/04/26 09:56:12;;;;;;;6.00;3.85;;;;;;;;;;4986479;28;20053;-84
2023/04/26 09:58:59;;;;;;;4.97;3.17;;;;;;;;;;4994323;28;20037;-82
2023/04/26 10:01:27;;;;;;;9.63;3.83;;;;;;;;;;5013026;28;20034;-83
2023/04/26 10:03:52;;;;;;;6.05;3.55;;;;;;;;;;5006186;28;20022;-88
2023/04/26 10:06:17;;;;;;;7.57;3.97;;;;;;;;;;5088503;23;20097;-83
2023/04/26 10:08:44;;;;;;;8.20;3.40;;;;;;;;;;4973726;28;20053;-86
2023/04/26 10:11:10;;;;;;;9.13;3.65;;;;;;;;;;4974524;28;20014;-85
2023/04/26 10:13:36;;;;;;;6.55;3.63;;;;;;;;;;4983561;28;20291;-85
2023/04/26 10:16:02;;;;;;;7.45;3.80;;;;;;;;;;4979099;28;20027;-85
2023/04/26 10:18:28;;;;;;;6.13;3.20;;;;;;;;;;4981887;28;20026;-85
2023/04/26 10:20:58;;;;;;;8.82;3.50;;;;;;;;;;4974419;28;20101;-86
2023/04/26 10:23:24;;;;;;;6.43;2.95;;;;;;;;;;4968612;28;20030;-84
2023/04/26 10:25:51;;;;;;;4.47;2.70;;;;;;;;;;4963469;28;20023;-84
2023/04/26 10:28:17;;;;;;;8.98;2.80;;;;;;;;;;4963062;28;20015;-86
2023/04/26 10:30:56;;;;;;;6.53;2.65;;;;;;;;;;4966127;28;20396;-84
2023/04/26 10:33:23;;;;;;;7.68;2.90;;;;;;;;;;4966427;28;20019;-85
2023/04/26 10:36:00;;;;;;;4.93;3.10;;;;;;;;;;4970046;28;20038;-84
2023/04/26 10:38:25;;;;;;;5.68;3.53;;;;;;;;;;4979306;28;20050;-83
2023/04/26 10:40:51;;;;;;;5.88;3.40;;;;;;;;;;4964440;28;20098;-85
2023/04/26 10:43:18;;;;;;;8.43;3.33;;;;;;;;;;4962007;28;20018;-89
2023/04/26 10:45:45;;;;;;;7.72;2.90;;;;;;;;;;4989081;28;20082;-87
2023/04/26 10:48:30;;;;;;;6.15;3.03;;;;;;;;;;4987914;28;20038;-87
2023/04/26 10:51:00;;;;;;;5.85;2.75;;;;;;;;;;4985789;28;20486;-86
2023/04/26 10:53:26;;;;;;;4.40;2.90;;;;;;;;;;4979937;28;20080;-85
2023/04/26 10:55:52;;;;;;;5.13;2.92;;;;;;;;;;4958289;28;20557;-83
2023/04/26 10:58:33;;;;;;;8.40;2.65;;;;;;;;;;4976874;28;20050;-87
2023/04/26 11:01:19;;;;;;;3.95;2.63;;;;;;;;;;4979255;28;20112;-85
2023/04/26 11:03:57;;;;;;;3.63;2.60;;;;;;;;;;4974955;28;20066;-87
2023/04/26 11:06:46;;;;;;;5.15;2.30;;;;;;;;;;4960535;28;20041;-88
2023/04/26 11:09:40;;;;;;;6.28;3.40;;;;;;;;;;4969779;28;20091;-86
2023/04/26 11:12:13;;;;;;;6.55;2.67;;;;;;;;;;4955533;28;20030;-87
2023/04/26 11:14:40;;;;;;;3.85;2.22;;;;;;;;;;4971865;28;20029;-86
2023/04/26 11:17:07;;;;;;;4.70;2.60;;;;;;;;;;4953254;28;20042;-87
2023/04/26 11:19:33;;;;;;;3.67;2.70;;;;;;;;;;4970056;28;20031;-86
2023/04/26 11:22:00;;;;;;;7.22;2.78;;;;;;;;;;4952934;28;20023;-85
2023/04/26 11:24:35;;;;;;;6.47;3.00;;;;;;;;;;4952203;28;20042;-87
2023/04/26 11:27:07;;;;;;;6.78;2.63;;;;;;;;;;4952627;28;20106;-86
2023/04/26 11:29:32;;;;;;;6.30;2.72;;;;;;;;;;4946578;28;20391;-84
2023/04/26 11:31:58;;;;;;;6.47;2.95;;;;;;;;;;4951214;28;20508;-87
2023/04/26 11:34:30;;;;;;;6.75;2.70;;;;;;;;;;4961300;28;20051;-86
2023/04/26 11:36:55;;;;;;;6.82;3.13;;;;;;;;;;4982837;28;20045;-87
2023/04/26 11:39:21;;;;;;;11.75;3.63;;;;;;;;;;4977127;28;20110;-86
2023/04/26 11:41:46;;;;;;;5.53;2.90;;;;;;;;;;4944234;28;20057;-86
2023/04/26 11:44:11;;;;;;;4.78;2.67;;;;;;;;;;4977901;28;20097;-85
2023/04/26 11:46:37;;;;;;;4.03;2.50;;;;;;;;;;4961645;28;20035;-87
2023/04/26 11:49:02;;;;;;;6.03;3.15;;;;;;;;;;4975374;28;20023;-86
2023/04/26 11:51:28;;;;;;;5.55;3.35;;;;;;;;;;4986842;28;20027;-87
2023/04/26 11:53:54;;;;;;;5.97;2.85;;;;;;;;;;4954713;28;20082;-88
2023/04/26 11:56:21;;;;;;;4.43;2.88;;;;;;;;;;4975213;28;20086;-87
2023/04/26 11:58:48;;;;;;;6.93;3.13;;;;;;;;;;4963218;28;20033;-86
2023/04/26 12:01:24;;;;;;;4.80;2.72;;;;;;;;;;4975388;28;20025;-86
2023/04/26 12:03:52;;;;;;;4.63;2.70;;;;;;;;;;4983638;28;20105;-88
2023/04/26 12:06:25;;;;;;;9.48;3.30;;;;;;;;;;4971453;28;20027;-87
2023/04/26 12:08:51;;;;;;;3.83;2.90;;;;;;;;;;4959223;28;20026;-84
2023/04/26 12:11:17;;;;;;;4.63;2.70;;;;;;;;;;4953037;29;20078;-86
2023/04/26 12:13:44;;;;;;;7.00;2.58;;;;;;;;;;4993463;28;20508;-87
2023/04/26 12:16:12;;;;;;;6.68;3.10;;;;;;;;;;4955658;28;20034;-86
2023/04/26 12:18:37;;;;;;;4.10;2.75;;;;;;;;;;4970855;28;20030;-87
2023/04/26 12:21:02;;;;;;;9.32;2.70;;;;;;;;;;4967086;28;20106;-87
2023/04/26 12:23:37;;;;;;;7.10;2.70;;;;;;;;;;4985342;28;20065;-85
2023/04/26 12:26:03;;;;;;;3.13;2.20;;;;;;;;;;4944736;28;20037;-86
2023/04/26 12:28:29;;;;;;;4.72;2.70;;;;;;;;;;4953835;28;20394;-84
2023/04/26 12:30:54;;;;;;;5.25;2.35;;;;;;;;;;4965880;28;20041;-85
2023/04/26 12:33:26;;;;;;;4.35;2.28;;;;;;;;;;4981533;28;20033;-87
2023/04/26 12:35:51;;;;;;;6.70;2.85;;;;;;;;;;4983620;28;20022;-86
2023/04/26 12:38:18;;;;;;;4.80;2.35;;;;;;;;;;4968760;28;20126;-79
2023/04/26 12:40:43;;;;;;;6.70;2.78;;;;;;;;;;4945125;28;20143;-86
2023/04/26 12:43:09;;;;;;;4.07;2.53;;;;;;;;;;4947270;28;20479;-86
2023/04/26 12:45:35;;;;;;;5.70;2.70;;;;;;;;;;4973280;28;20031;-84
2023/04/26 12:48:01;;;;;;;5.22;2.53;;;;;;;;;;4980051;28;20038;-85
2023/04/26 12:50:26;;;;;;;4.68;2.58;;;;;;;;;;4947959;28;20130;-87
2023/04/26 12:52:52;;;;;;;5.15;2.40;;;;;;;;;;4951065;28;20491;-86
2023/04/26 12:55:17;;;;;;;8.23;2.60;;;;;;;;;;4968836;28;20023;-86
2023/04/26 12:57:43;;;;;;;3.03;2.47;;;;;;;;;;4976021;28;20027;-86
2023/04/26 13:00:14;;;;;;;7.47;2.50;;;;;;;;;;4980222;28;20037;-82
2023/04/26 13:02:40;;;;;;;5.47;2.97;;;;;;;;;;4952674;28;20028;-86
2023/04/26 13:05:06;;;;;;;4.75;2.22;;;;;;;;;;4964859;28;20038;-85
2023/04/26 13:07:36;;;;;;;7.15;2.83;;;;;;;;;;4948956;28;20027;-86
2023/04/26 13:10:03;;;;;;;5.50;2.80;;;;;;;;;;4952313;28;20053;-86
2023/04/26 13:12:29;;;;;;;5.80;2.47;;;;;;;;;;4970815;28;20672;-84
2023/04/26 13:14:55;;;;;;;3.88;2.38;;;;;;;;;;4978456;28;20105;-86
2023/04/26 13:17:25;;;;;;;6.18;2.80;;;;;;;;;;4944880;29;20419;-86
2023/04/26 13:19:51;;;;;;;3.78;2.63;;;;;;;;;;4981500;28;20051;-85
2023/04/26 13:22:17;;;;;;;4.40;2.47;;;;;;;;;;4970280;28;20034;-85
2023/04/26 13:24:43;;;;;;;3.65;2.03;;;;;;;;;;4966481;28;20022;-87
2023/04/26 13:27:08;;;;;;;3.83;2.05;;;;;;;;;;4967688;28;20037;-86
2023/04/26 13:29:34;;;;;;;7.72;2.90;;;;;;;;;;4960936;28;20027;-84
2023/04/26 13:32:00;;;;;;;6.85;2.92;;;;;;;;;;4959295;28;20027;-87
2023/04/26 13:34:25;;;;;;;2.63;2.15;;;;;;;;;;4955421;28;20023;-87
2023/04/26 13:36:51;;;;;;;3.33;2.50;;;;;;;;;;4981772;28;20045;-87
2023/04/26 13:39:17;;;;;;;4.80;2.40;;;;;;;;;;4964835;28;20129;-84
2023/04/26 13:41:43;;;;;;;6.80;2.67;;;;;;;;;;4977204;28;20030;-85
2023/04/26 13:44:08;;;;;;;8.80;2.30;;;;;;;;;;4989846;28;20418;-84
2023/04/26 13:46:34;;;;;;;5.13;2.60;;;;;;;;;;4981164;28;20033;-86
2023/04/26 13:48:59;;;;;;;7.00;2.60;;;;;;;;;;4978441;28;20030;-85
2023/04/26 13:51:25;;;;;;;2.95;2.08;;;;;;;;;;4970690;28;20082;-85
2023/04/26 13:53:52;;;;;;;8.52;2.75;;;;;;;;;;4971682;28;20035;-87
2023/04/26 13:56:18;;;;;;;5.35;2.50;;;;;;;;;;4964195;28;20026;-85
2023/04/26 13:58:44;;;;;;;7.78;2.70;;;;;;;;;;4998712;28;20022;-85
2023/04/26 14:01:10;;;;;;;5.70;2.38;;;;;;;;;;4956312;28;20034;-85
2023/04/26 14:03:35;;;;;;;6.60;2.20;;;;;;;;;;4953493;28;20079;-86
2023/04/26 14:06:02;;;;;;;3.30;2.50;;;;;;;;;;4961043;28;20066;-87
2023/04/26 14:08:28;;;;;;;4.70;2.63;;;;;;;;;;4961196;28;20030;-86
2023/04/26 14:10:53;;;;;;;3.13;2.33;;;;;;;;;;4959195;28;20026;-86
2023/04/26 14:13:18;;;;;;;4.78;2.75;;;;;;;;;;4966636;28;20038;-84
2023/04/26 14:15:44;;;;;;;5.03;2.95;;;;;;;;;;4962340;28;20117;-87
2023/04/26 14:18:10;;;;;;;5.95;2.25;;;;;;;;;;4969520;28;20027;-87
2023/04/26 14:20:35;;;;;;;3.40;2.35;;;;;;;;;;4972151;28;20085;-86
2023/04/26 14:23:01;;;;;;;3.17;2.20;;;;;;;;;;4970006;28;20082;-83
2023/04/26 14:25:26;;;;;;;5.72;2.83;;;;;;;;;;4982416;28;20041;-81
2023/04/26 14:27:52;;;;;;;4.07;2.15;;;;;;;;;;4991946;28;20061;-82
2023/04/26 14:30:18;;;;;;;8.65;2.53;;;;;;;;;;4970477;28;20081;-87
2023/04/26 14:32:44;;;;;;;4.63;2.42;;;;;;;;;;4952113;28;20030;-88
2023/04/26 14:35:10;;;;;;;4.65;2.50;;;;;;;;;;4960672;28;20375;-84